sensor_id;sensor_type;location;lat;lon;timestamp;temperature;humidity
32749;DHT22;19119;52.474;13.710;2023-09-08T00:00:57;16.00;99.90
32749;DHT22;19119;52.474;13.710;2023-09-08T00:03:24;15.80;99.90
32749;DHT22;19119;52.474;13.710;2023-09-08T00:05:49;15.80;99.90
32749;DHT22;19119;52.474;13.710;2023-09-08T00:08:17;15.80;99.90
32749;DHT22;19119;52.474;13.710;2023-09-08T00:10:42;15.70;99.90
32749;DHT22;19119;52.474;13.710;2023-09-08T00:13:09;15.60;99.90
32749;DHT22;19119;52.474;13.710;2023-09-08T00:15:34;15.60;99.90
32749;DHT22;19119;52.474;13.710;2023-09-08T00:18:01;15.70;99.90
32749;DHT22;19119;52.474;13.710;2023-09-08T00:20:26;15.70;99.90
32749;DHT22;19119;52.474;13.710;2023-09-08T00:22:52;15.60;99.90
32749;DHT22;19119;52.474;13.710;2023-09-08T00:25:20;15.60;99.90
32749;DHT22;19119;52.474;13.710;2023-09-08T00:27:46;15.60;99.90
32749;DHT22;19119;52.474;13.710;2023-09-08T00:30:11;15.50;99.90
32749;DHT22;19119;52.474;13.710;2023-09-08T00:32:37;15.60;99.90
32749;DHT22;19119;52.474;13.710;2023-09-08T00:35:05;15.60;99.90
32749;DHT22;19119;52.474;13.710;2023-09-08T00:37:32;15.60;99.90
32749;DHT22;19119;52.474;13.710;2023-09-08T00:39:57;15.50;99.90
32749;DHT22;19119;52.474;13.710;2023-09-08T00:42:24;15.50;99.90
32749;DHT22;19119;52.474;13.710;2023-09-08T00:44:50;15.50;99.90
32749;DHT22;19119;52.474;13.710;2023-09-08T00:47:17;15.40;99.90
32749;DHT22;19119;52.474;13.710;2023-09-08T00:49:43;15.40;99.90
32749;DHT22;19119;52.474;13.710;2023-09-08T00:52:10;15.20;99.90
32749;DHT22;19119;52.474;13.710;2023-09-08T00:54:35;15.40;99.90
32749;DHT22;19119;52.474;13.710;2023-09-08T00:57:01;15.40;99.90
32749;DHT22;19119;52.474;13.710;2023-09-08T00:59:30;15.20;99.90
32749;DHT22;19119;52.474;13.710;2023-09-08T01:01:56;15.30;99.90
32749;DHT22;19119;52.474;13.710;2023-09-08T01:04:22;15.30;99.90
32749;DHT22;19119;52.474;13.710;2023-09-08T01:06:48;15.20;99.90
32749;DHT22;19119;52.474;13.710;2023-09-08T01:09:15;15.20;99.90
32749;DHT22;19119;52.474;13.710;2023-09-08T01:11:41;15.20;99.90
32749;DHT22;19119;52.474;13.710;2023-09-08T01:14:08;15.10;99.90
32749;DHT22;19119;52.474;13.710;2023-09-08T01:16:34;15.00;99.90
32749;DHT22;19119;52.474;13.710;2023-09-08T01:19:03;15.10;99.90
32749;DHT22;19119;52.474;13.710;2023-09-08T01:21:35;15.10;99.90
32749;DHT22;19119;52.474;13.710;2023-09-08T01:26:53;15.10;99.90
32749;DHT22;19119;52.474;13.710;2023-09-08T01:29:19;15.10;99.90
32749;DHT22;19119;52.474;13.710;2023-09-08T01:31:45;15.00;99.90
32749;DHT22;19119;52.474;13.710;2023-09-08T01:34:13;15.00;99.90
32749;DHT22;19119;52.474;13.710;2023-09-08T01:36:39;15.00;99.90
32749;DHT22;19119;52.474;13.710;2023-09-08T01:39:06;15.00;99.90
32749;DHT22;19119;52.474;13.710;2023-09-08T01:41:31;15.00;99.90
32749;DHT22;19119;52.474;13.710;2023-09-08T01:43:59;15.00;99.90
32749;DHT22;19119;52.474;13.710;2023-09-08T01:46:24;15.00;99.90
32749;DHT22;19119;52.474;13.710;2023-09-08T01:48:50;14.90;99.90
32749;DHT22;19119;52.474;13.710;2023-09-08T01:51:15;15.00;99.90
32749;DHT22;19119;52.474;13.710;2023-09-08T01:53:42;14.80;99.90
32749;DHT22;19119;52.474;13.710;2023-09-08T01:56:08;14.90;99.90
32749;DHT22;19119;52.474;13.710;2023-09-08T01:58:33;14.90;99.90
32749;DHT22;19119;52.474;13.710;2023-09-08T02:00:59;14.80;99.90
32749;DHT22;19119;52.474;13.710;2023-09-08T02:03:31;14.80;99.90
32749;DHT22;19119;52.474;13.710;2023-09-08T02:05:56;14.70;99.90
32749;DHT22;19119;52.474;13.710;2023-09-08T02:08:22;14.80;99.90
32749;DHT22;19119;52.474;13.710;2023-09-08T02:10:47;14.70;99.90
32749;DHT22;19119;52.474;13.710;2023-09-08T02:13:13;14.70;99.90
32749;DHT22;19119;52.474;13.710;2023-09-08T02:15:40;14.70;99.90
32749;DHT22;19119;52.474;13.710;2023-09-08T02:18:06;14.70;99.90
32749;DHT22;19119;52.474;13.710;2023-09-08T02:20:32;14.60;99.90
32749;DHT22;19119;52.474;13.710;2023-09-08T02:23:03;14.60;99.90
32749;DHT22;19119;52.474;13.710;2023-09-08T02:25:28;14.70;99.90
32749;DHT22;19119;52.474;13.710;2023-09-08T02:27:54;14.70;99.90
32749;DHT22;19119;52.474;13.710;2023-09-08T02:30:19;14.70;99.90
32749;DHT22;19119;52.474;13.710;2023-09-08T02:32:45;14.60;99.90
32749;DHT22;19119;52.474;13.710;2023-09-08T02:35:11;14.80;99.90
32749;DHT22;19119;52.474;13.710;2023-09-08T02:37:37;14.60;99.90
32749;DHT22;19119;52.474;13.710;2023-09-08T02:40:02;14.70;99.90
32749;DHT22;19119;52.474;13.710;2023-09-08T02:42:29;14.60;99.90
32749;DHT22;19119;52.474;13.710;2023-09-08T02:44:54;14.70;99.90
32749;DHT22;19119;52.474;13.710;2023-09-08T02:47:20;14.70;99.90
32749;DHT22;19119;52.474;13.710;2023-09-08T02:49:46;14.50;99.90
32749;DHT22;19119;52.474;13.710;2023-09-08T02:52:12;14.50;99.90
32749;DHT22;19119;52.474;13.710;2023-09-08T02:54:37;14.50;99.90
32749;DHT22;19119;52.474;13.710;2023-09-08T02:57:03;14.50;99.90
32749;DHT22;19119;52.474;13.710;2023-09-08T02:59:29;14.50;99.90
32749;DHT22;19119;52.474;13.710;2023-09-08T03:01:55;14.40;99.90
32749;DHT22;19119;52.474;13.710;2023-09-08T03:04:21;14.40;99.90
32749;DHT22;19119;52.474;13.710;2023-09-08T03:06:46;14.50;99.90
32749;DHT22;19119;52.474;13.710;2023-09-08T03:09:12;14.40;99.90
32749;DHT22;19119;52.474;13.710;2023-09-08T03:11:37;14.20;99.90
32749;DHT22;19119;52.474;13.710;2023-09-08T03:14:03;14.30;99.90
32749;DHT22;19119;52.474;13.710;2023-09-08T03:16:28;14.40;99.90
32749;DHT22;19119;52.474;13.710;2023-09-08T03:18:54;14.50;99.90
32749;DHT22;19119;52.474;13.710;2023-09-08T03:21:19;14.50;99.90
32749;DHT22;19119;52.474;13.710;2023-09-08T03:23:46;14.50;99.90
32749;DHT22;19119;52.474;13.710;2023-09-08T03:26:11;14.60;99.90
32749;DHT22;19119;52.474;13.710;2023-09-08T03:28:37;14.60;99.90
32749;DHT22;19119;52.474;13.710;2023-09-08T03:31:04;14.50;99.90
32749;DHT22;19119;52.474;13.710;2023-09-08T03:33:29;14.50;99.90
32749;DHT22;19119;52.474;13.710;2023-09-08T03:35:56;14.40;99.90
32749;DHT22;19119;52.474;13.710;2023-09-08T03:38:22;14.70;99.90
32749;DHT22;19119;52.474;13.710;2023-09-08T03:40:48;14.40;99.90
32749;DHT22;19119;52.474;13.710;2023-09-08T03:43:15;14.40;99.90
32749;DHT22;19119;52.474;13.710;2023-09-08T03:45:41;14.40;99.90
32749;DHT22;19119;52.474;13.710;2023-09-08T03:48:07;14.40;99.90
32749;DHT22;19119;52.474;13.710;2023-09-08T03:50:32;14.40;99.90
32749;DHT22;19119;52.474;13.710;2023-09-08T03:52:58;14.50;99.90
32749;DHT22;19119;52.474;13.710;2023-09-08T03:55:23;14.50;99.90
32749;DHT22;19119;52.474;13.710;2023-09-08T03:57:49;14.50;99.90
32749;DHT22;19119;52.474;13.710;2023-09-08T04:00:14;14.40;99.90
32749;DHT22;19119;52.474;13.710;2023-09-08T04:02:46;14.40;99.90
32749;DHT22;19119;52.474;13.710;2023-09-08T04:05:13;14.40;99.90
32749;DHT22;19119;52.474;13.710;2023-09-08T04:07:39;14.30;99.90
32749;DHT22;19119;52.474;13.710;2023-09-08T04:10:06;14.30;99.90
32749;DHT22;19119;52.474;13.710;2023-09-08T04:12:31;14.30;99.90
32749;DHT22;19119;52.474;13.710;2023-09-08T04:14:57;14.30;99.90
32749;DHT22;19119;52.474;13.710;2023-09-08T04:17:22;14.30;99.90
32749;DHT22;19119;52.474;13.710;2023-09-08T04:19:48;14.40;99.90
32749;DHT22;19119;52.474;13.710;2023-09-08T04:22:13;14.40;99.90
32749;DHT22;19119;52.474;13.710;2023-09-08T04:24:41;14.40;99.90
32749;DHT22;19119;52.474;13.710;2023-09-08T04:27:08;14.50;99.90
32749;DHT22;19119;52.474;13.710;2023-09-08T04:29:35;14.50;99.90
32749;DHT22;19119;52.474;13.710;2023-09-08T04:32:01;14.50;99.90
32749;DHT22;19119;52.474;13.710;2023-09-08T04:34:26;14.50;99.90
32749;DHT22;19119;52.474;13.710;2023-09-08T04:36:52;14.50;99.90
32749;DHT22;19119;52.474;13.710;2023-09-08T04:39:17;14.50;99.90
32749;DHT22;19119;52.474;13.710;2023-09-08T04:41:44;14.40;99.90
32749;DHT22;19119;52.474;13.710;2023-09-08T04:44:10;14.50;99.90
32749;DHT22;19119;52.474;13.710;2023-09-08T04:46:35;14.50;99.90
32749;DHT22;19119;52.474;13.710;2023-09-08T04:49:01;14.50;99.90
32749;DHT22;19119;52.474;13.710;2023-09-08T04:51:26;14.50;99.90
32749;DHT22;19119;52.474;13.710;2023-09-08T04:53:53;14.50;99.90
32749;DHT22;19119;52.474;13.710;2023-09-08T04:56:18;14.50;99.90
32749;DHT22;19119;52.474;13.710;2023-09-08T04:58:44;14.50;99.90
32749;DHT22;19119;52.474;13.710;2023-09-08T05:01:09;14.70;99.90
32749;DHT22;19119;52.474;13.710;2023-09-08T05:03:35;14.70;99.90
32749;DHT22;19119;52.474;13.710;2023-09-08T05:06:00;14.70;99.90
32749;DHT22;19119;52.474;13.710;2023-09-08T05:08:27;14.90;99.90
32749;DHT22;19119;52.474;13.710;2023-09-08T05:10:53;15.10;99.90
32749;DHT22;19119;52.474;13.710;2023-09-08T05:13:18;15.20;99.90
32749;DHT22;19119;52.474;13.710;2023-09-08T05:15:44;15.20;99.90
32749;DHT22;19119;52.474;13.710;2023-09-08T05:18:13;15.30;99.90
32749;DHT22;19119;52.474;13.710;2023-09-08T05:20:39;15.50;99.90
32749;DHT22;19119;52.474;13.710;2023-09-08T05:23:04;15.60;99.90
32749;DHT22;19119;52.474;13.710;2023-09-08T05:25:30;15.80;99.90
32749;DHT22;19119;52.474;13.710;2023-09-08T05:27:55;15.80;99.90
32749;DHT22;19119;52.474;13.710;2023-09-08T05:30:21;15.90;99.90
32749;DHT22;19119;52.474;13.710;2023-09-08T05:32:46;16.00;99.90
32749;DHT22;19119;52.474;13.710;2023-09-08T05:35:12;16.20;99.90
32749;DHT22;19119;52.474;13.710;2023-09-08T05:37:38;16.10;99.90
32749;DHT22;19119;52.474;13.710;2023-09-08T05:40:04;16.30;99.90
32749;DHT22;19119;52.474;13.710;2023-09-08T05:42:30;16.20;99.90
32749;DHT22;19119;52.474;13.710;2023-09-08T05:44:55;16.10;99.90
32749;DHT22;19119;52.474;13.710;2023-09-08T05:47:21;16.40;99.90
32749;DHT22;19119;52.474;13.710;2023-09-08T05:49:47;16.30;99.90
32749;DHT22;19119;52.474;13.710;2023-09-08T05:52:12;16.40;99.90
32749;DHT22;19119;52.474;13.710;2023-09-08T05:54:37;16.50;99.90
32749;DHT22;19119;52.474;13.710;2023-09-08T05:57:03;16.50;99.90
32749;DHT22;19119;52.474;13.710;2023-09-08T05:59:28;16.70;99.90
32749;DHT22;19119;52.474;13.710;2023-09-08T06:01:54;16.90;99.90
32749;DHT22;19119;52.474;13.710;2023-09-08T06:04:19;17.10;99.90
32749;DHT22;19119;52.474;13.710;2023-09-08T06:06:45;17.30;99.90
32749;DHT22;19119;52.474;13.710;2023-09-08T06:09:10;17.50;99.90
32749;DHT22;19119;52.474;13.710;2023-09-08T06:11:37;17.60;99.90
32749;DHT22;19119;52.474;13.710;2023-09-08T06:14:02;17.70;99.90
32749;DHT22;19119;52.474;13.710;2023-09-08T06:16:28;17.90;99.90
32749;DHT22;19119;52.474;13.710;2023-09-08T06:18:53;18.10;99.90
32749;DHT22;19119;52.474;13.710;2023-09-08T06:21:19;18.20;99.90
32749;DHT22;19119;52.474;13.710;2023-09-08T06:23:47;18.50;99.90
32749;DHT22;19119;52.474;13.710;2023-09-08T06:26:13;18.80;99.90
32749;DHT22;19119;52.474;13.710;2023-09-08T06:28:38;19.00;99.90
32749;DHT22;19119;52.474;13.710;2023-09-08T06:31:05;18.90;99.90
32749;DHT22;19119;52.474;13.710;2023-09-08T06:33:33;19.10;99.90
32749;DHT22;19119;52.474;13.710;2023-09-08T06:35:58;19.20;99.90
32749;DHT22;19119;52.474;13.710;2023-09-08T06:38:24;19.30;99.90
32749;DHT22;19119;52.474;13.710;2023-09-08T06:40:49;19.40;99.90
32749;DHT22;19119;52.474;13.710;2023-09-08T06:43:18;19.40;99.90
32749;DHT22;19119;52.474;13.710;2023-09-08T06:45:47;19.50;99.90
32749;DHT22;19119;52.474;13.710;2023-09-08T06:48:14;19.70;99.90
32749;DHT22;19119;52.474;13.710;2023-09-08T06:50:40;20.00;99.90
32749;DHT22;19119;52.474;13.710;2023-09-08T06:53:06;20.00;99.90
32749;DHT22;19119;52.474;13.710;2023-09-08T06:55:32;20.30;99.90
32749;DHT22;19119;52.474;13.710;2023-09-08T06:57:59;20.40;99.90
32749;DHT22;19119;52.474;13.710;2023-09-08T07:00:26;20.60;99.90
32749;DHT22;19119;52.474;13.710;2023-09-08T07:02:51;20.90;99.90
32749;DHT22;19119;52.474;13.710;2023-09-08T07:05:17;21.00;99.90
32749;DHT22;19119;52.474;13.710;2023-09-08T07:07:43;20.80;99.90
32749;DHT22;19119;52.474;13.710;2023-09-08T07:10:09;21.30;99.90
32749;DHT22;19119;52.474;13.710;2023-09-08T07:12:35;21.50;99.90
32749;DHT22;19119;52.474;13.710;2023-09-08T07:15:00;21.70;99.90
32749;DHT22;19119;52.474;13.710;2023-09-08T07:17:27;22.00;99.90
32749;DHT22;19119;52.474;13.710;2023-09-08T07:19:52;22.20;99.90
32749;DHT22;19119;52.474;13.710;2023-09-08T07:22:18;22.30;99.90
32749;DHT22;19119;52.474;13.710;2023-09-08T07:24:44;22.30;99.90
32749;DHT22;19119;52.474;13.710;2023-09-08T07:27:10;22.40;99.90
32749;DHT22;19119;52.474;13.710;2023-09-08T07:29:40;22.50;99.90
32749;DHT22;19119;52.474;13.710;2023-09-08T07:32:07;22.80;99.90
32749;DHT22;19119;52.474;13.710;2023-09-08T07:34:35;22.80;99.90
32749;DHT22;19119;52.474;13.710;2023-09-08T07:37:01;23.10;99.90
32749;DHT22;19119;52.474;13.710;2023-09-08T07:39:26;23.30;99.90
32749;DHT22;19119;52.474;13.710;2023-09-08T07:41:52;23.50;99.90
32749;DHT22;19119;52.474;13.710;2023-09-08T07:44:18;23.50;99.90
32749;DHT22;19119;52.474;13.710;2023-09-08T07:46:44;23.70;99.90
32749;DHT22;19119;52.474;13.710;2023-09-08T07:49:11;24.00;99.90
32749;DHT22;19119;52.474;13.710;2023-09-08T07:51:36;24.20;99.90
32749;DHT22;19119;52.474;13.710;2023-09-08T07:54:03;24.20;99.90
32749;DHT22;19119;52.474;13.710;2023-09-08T07:56:29;24.70;99.90
32749;DHT22;19119;52.474;13.710;2023-09-08T07:58:55;24.90;99.90
32749;DHT22;19119;52.474;13.710;2023-09-08T08:01:20;25.10;99.20
32749;DHT22;19119;52.474;13.710;2023-09-08T08:03:46;25.20;99.60
32749;DHT22;19119;52.474;13.710;2023-09-08T08:06:11;25.40;99.10
32749;DHT22;19119;52.474;13.710;2023-09-08T08:08:36;25.30;99.90
32749;DHT22;19119;52.474;13.710;2023-09-08T08:11:12;25.30;98.50
32749;DHT22;19119;52.474;13.710;2023-09-08T08:13:38;25.50;98.70
32749;DHT22;19119;52.474;13.710;2023-09-08T08:16:04;25.80;98.70
32749;DHT22;19119;52.474;13.710;2023-09-08T08:18:29;26.20;98.30
32749;DHT22;19119;52.474;13.710;2023-09-08T08:20:55;26.10;98.00
32749;DHT22;19119;52.474;13.710;2023-09-08T08:23:20;26.40;98.60
32749;DHT22;19119;52.474;13.710;2023-09-08T08:25:46;26.70;98.00
32749;DHT22;19119;52.474;13.710;2023-09-08T08:28:12;27.20;98.50
32749;DHT22;19119;52.474;13.710;2023-09-08T08:30:37;27.00;97.40
32749;DHT22;19119;52.474;13.710;2023-09-08T08:33:03;27.30;97.60
32749;DHT22;19119;52.474;13.710;2023-09-08T08:35:29;27.10;96.70
32749;DHT22;19119;52.474;13.710;2023-09-08T08:37:57;26.90;96.60
32749;DHT22;19119;52.474;13.710;2023-09-08T08:40:22;27.30;96.90
32749;DHT22;19119;52.474;13.710;2023-09-08T08:42:54;27.50;97.10
32749;DHT22;19119;52.474;13.710;2023-09-08T08:45:23;27.70;96.60
32749;DHT22;19119;52.474;13.710;2023-09-08T08:47:49;27.80;95.70
32749;DHT22;19119;52.474;13.710;2023-09-08T08:50:15;28.00;96.30
32749;DHT22;19119;52.474;13.710;2023-09-08T08:52:42;27.90;95.60
32749;DHT22;19119;52.474;13.710;2023-09-08T08:55:09;28.00;95.50
32749;DHT22;19119;52.474;13.710;2023-09-08T08:57:38;28.00;95.50
32749;DHT22;19119;52.474;13.710;2023-09-08T09:00:13;28.10;95.00
32749;DHT22;19119;52.474;13.710;2023-09-08T09:02:42;28.20;94.90
32749;DHT22;19119;52.474;13.710;2023-09-08T09:05:28;27.90;94.40
32749;DHT22;19119;52.474;13.710;2023-09-08T09:07:53;27.90;95.00
32749;DHT22;19119;52.474;13.710;2023-09-08T09:10:20;28.10;94.90
32749;DHT22;19119;52.474;13.710;2023-09-08T09:12:46;28.20;94.40
32749;DHT22;19119;52.474;13.710;2023-09-08T09:15:12;28.50;94.40
32749;DHT22;19119;52.474;13.710;2023-09-08T09:17:38;28.90;93.90
32749;DHT22;19119;52.474;13.710;2023-09-08T09:20:14;28.80;93.10
32749;DHT22;19119;52.474;13.710;2023-09-08T09:22:43;29.10;93.60
32749;DHT22;19119;52.474;13.710;2023-09-08T09:25:09;29.30;93.90
32749;DHT22;19119;52.474;13.710;2023-09-08T09:27:36;29.10;92.80
32749;DHT22;19119;52.474;13.710;2023-09-08T09:30:03;29.10;93.20
32749;DHT22;19119;52.474;13.710;2023-09-08T09:32:29;29.00;93.50
32749;DHT22;19119;52.474;13.710;2023-09-08T09:34:57;29.00;92.60
32749;DHT22;19119;52.474;13.710;2023-09-08T09:37:23;29.10;93.10
32749;DHT22;19119;52.474;13.710;2023-09-08T09:39:50;29.40;93.10
32749;DHT22;19119;52.474;13.710;2023-09-08T09:42:16;29.20;93.20
32749;DHT22;19119;52.474;13.710;2023-09-08T09:44:41;29.50;92.70
32749;DHT22;19119;52.474;13.710;2023-09-08T09:47:07;29.60;92.60
32749;DHT22;19119;52.474;13.710;2023-09-08T09:49:45;29.60;92.30
32749;DHT22;19119;52.474;13.710;2023-09-08T09:52:21;29.70;92.80
32749;DHT22;19119;52.474;13.710;2023-09-08T09:54:48;29.70;92.60
32749;DHT22;19119;52.474;13.710;2023-09-08T09:57:16;29.90;92.50
32749;DHT22;19119;52.474;13.710;2023-09-08T09:59:42;29.80;91.70
32749;DHT22;19119;52.474;13.710;2023-09-08T10:02:18;30.70;92.10
32749;DHT22;19119;52.474;13.710;2023-09-08T10:04:50;30.50;91.70
32749;DHT22;19119;52.474;13.710;2023-09-08T10:07:16;30.30;91.70
32749;DHT22;19119;52.474;13.710;2023-09-08T10:09:41;30.50;92.20
32749;DHT22;19119;52.474;13.710;2023-09-08T10:12:08;30.50;91.70
32749;DHT22;19119;52.474;13.710;2023-09-08T10:14:35;30.80;91.40
32749;DHT22;19119;52.474;13.710;2023-09-08T10:17:02;30.70;92.20
32749;DHT22;19119;52.474;13.710;2023-09-08T10:19:28;30.80;91.80
32749;DHT22;19119;52.474;13.710;2023-09-08T10:22:00;30.40;91.30
32749;DHT22;19119;52.474;13.710;2023-09-08T10:24:32;30.60;91.80
32749;DHT22;19119;52.474;13.710;2023-09-08T10:27:10;30.50;90.90
32749;DHT22;19119;52.474;13.710;2023-09-08T10:29:36;31.00;91.20
32749;DHT22;19119;52.474;13.710;2023-09-08T10:32:02;31.10;90.80
32749;DHT22;19119;52.474;13.710;2023-09-08T10:34:28;31.20;91.20
32749;DHT22;19119;52.474;13.710;2023-09-08T10:36:55;31.50;90.70
32749;DHT22;19119;52.474;13.710;2023-09-08T10:39:34;31.70;90.70
32749;DHT22;19119;52.474;13.710;2023-09-08T10:44:55;31.20;90.20
32749;DHT22;19119;52.474;13.710;2023-09-08T10:47:25;31.20;90.70
32749;DHT22;19119;52.474;13.710;2023-09-08T10:49:56;31.10;91.40
32749;DHT22;19119;52.474;13.710;2023-09-08T10:52:24;31.20;91.30
32749;DHT22;19119;52.474;13.710;2023-09-08T10:54:54;31.50;91.20
32749;DHT22;19119;52.474;13.710;2023-09-08T10:57:22;31.90;90.80
32749;DHT22;19119;52.474;13.710;2023-09-08T11:00:00;32.00;90.50
32749;DHT22;19119;52.474;13.710;2023-09-08T11:02:48;31.90;90.30
32749;DHT22;19119;52.474;13.710;2023-09-08T11:05:15;32.50;90.30
32749;DHT22;19119;52.474;13.710;2023-09-08T11:07:42;31.90;89.50
32749;DHT22;19119;52.474;13.710;2023-09-08T11:10:09;32.40;90.30
32749;DHT22;19119;52.474;13.710;2023-09-08T11:12:35;32.50;88.80
32749;DHT22;19119;52.474;13.710;2023-09-08T11:15:03;32.50;90.00
32749;DHT22;19119;52.474;13.710;2023-09-08T11:17:33;32.40;89.80
32749;DHT22;19119;52.474;13.710;2023-09-08T11:20:00;32.60;88.50
32749;DHT22;19119;52.474;13.710;2023-09-08T11:22:26;32.30;88.30
32749;DHT22;19119;52.474;13.710;2023-09-08T11:24:53;31.80;88.90
32749;DHT22;19119;52.474;13.710;2023-09-08T11:27:22;31.80;89.80
32749;DHT22;19119;52.474;13.710;2023-09-08T11:29:51;31.40;88.70
32749;DHT22;19119;52.474;13.710;2023-09-08T11:32:18;31.90;89.60
32749;DHT22;19119;52.474;13.710;2023-09-08T11:34:43;31.90;88.40
32749;DHT22;19119;52.474;13.710;2023-09-08T11:37:15;31.70;87.80
32749;DHT22;19119;52.474;13.710;2023-09-08T11:39:43;32.20;88.60
32749;DHT22;19119;52.474;13.710;2023-09-08T11:42:12;32.40;87.10
32749;DHT22;19119;52.474;13.710;2023-09-08T11:44:38;32.40;89.20
32749;DHT22;19119;52.474;13.710;2023-09-08T11:47:06;32.50;88.90
32749;DHT22;19119;52.474;13.710;2023-09-08T11:49:36;32.50;88.20
32749;DHT22;19119;52.474;13.710;2023-09-08T11:52:02;32.70;85.90
32749;DHT22;19119;52.474;13.710;2023-09-08T11:54:29;33.20;86.60
32749;DHT22;19119;52.474;13.710;2023-09-08T11:56:56;33.10;85.00
32749;DHT22;19119;52.474;13.710;2023-09-08T11:59:23;32.80;85.10
32749;DHT22;19119;52.474;13.710;2023-09-08T12:01:50;32.70;87.00
32749;DHT22;19119;52.474;13.710;2023-09-08T12:04:19;32.30;88.00
32749;DHT22;19119;52.474;13.710;2023-09-08T12:06:48;32.50;87.60
32749;DHT22;19119;52.474;13.710;2023-09-08T12:09:15;32.90;86.80
32749;DHT22;19119;52.474;13.710;2023-09-08T12:11:42;33.00;85.70
32749;DHT22;19119;52.474;13.710;2023-09-08T12:14:12;32.90;86.50
32749;DHT22;19119;52.474;13.710;2023-09-08T12:16:39;32.60;84.80
32749;DHT22;19119;52.474;13.710;2023-09-08T12:19:05;33.10;86.60
32749;DHT22;19119;52.474;13.710;2023-09-08T12:21:32;32.80;86.50
32749;DHT22;19119;52.474;13.710;2023-09-08T12:23:58;33.00;85.60
32749;DHT22;19119;52.474;13.710;2023-09-08T12:26:27;33.30;86.60
32749;DHT22;19119;52.474;13.710;2023-09-08T12:28:53;33.10;87.50
32749;DHT22;19119;52.474;13.710;2023-09-08T12:31:18;33.40;88.20
32749;DHT22;19119;52.474;13.710;2023-09-08T12:33:44;33.50;86.40
32749;DHT22;19119;52.474;13.710;2023-09-08T12:36:17;33.00;84.00
32749;DHT22;19119;52.474;13.710;2023-09-08T12:38:52;33.90;85.70
32749;DHT22;19119;52.474;13.710;2023-09-08T12:41:19;34.10;83.10
32749;DHT22;19119;52.474;13.710;2023-09-08T12:43:46;34.00;82.90
32749;DHT22;19119;52.474;13.710;2023-09-08T12:46:12;34.40;83.80
32749;DHT22;19119;52.474;13.710;2023-09-08T12:48:38;34.40;84.40
32749;DHT22;19119;52.474;13.710;2023-09-08T12:51:03;34.20;81.50
32749;DHT22;19119;52.474;13.710;2023-09-08T12:53:34;34.30;82.00
32749;DHT22;19119;52.474;13.710;2023-09-08T12:56:02;34.70;82.40
32749;DHT22;19119;52.474;13.710;2023-09-08T12:58:28;34.40;81.70
32749;DHT22;19119;52.474;13.710;2023-09-08T13:00:54;34.70;82.50
32749;DHT22;19119;52.474;13.710;2023-09-08T13:03:19;35.20;81.50
32749;DHT22;19119;52.474;13.710;2023-09-08T13:05:46;35.70;80.00
32749;DHT22;19119;52.474;13.710;2023-09-08T13:08:11;35.20;79.70
32749;DHT22;19119;52.474;13.710;2023-09-08T13:10:37;35.00;79.30
32749;DHT22;19119;52.474;13.710;2023-09-08T13:13:03;35.30;81.30
32749;DHT22;19119;52.474;13.710;2023-09-08T13:15:29;35.70;79.00
32749;DHT22;19119;52.474;13.710;2023-09-08T13:17:55;35.80;79.00
32749;DHT22;19119;52.474;13.710;2023-09-08T13:20:22;36.10;79.80
32749;DHT22;19119;52.474;13.710;2023-09-08T13:22:48;36.10;78.50
32749;DHT22;19119;52.474;13.710;2023-09-08T13:25:13;36.30;79.20
32749;DHT22;19119;52.474;13.710;2023-09-08T13:27:42;36.30;79.60
32749;DHT22;19119;52.474;13.710;2023-09-08T13:30:13;36.20;79.00
32749;DHT22;19119;52.474;13.710;2023-09-08T13:38:45;35.90;78.30
32749;DHT22;19119;52.474;13.710;2023-09-08T13:41:12;36.00;79.40
32749;DHT22;19119;52.474;13.710;2023-09-08T13:43:37;36.70;78.20
32749;DHT22;19119;52.474;13.710;2023-09-08T13:46:02;35.60;77.90
32749;DHT22;19119;52.474;13.710;2023-09-08T13:48:29;34.90;78.70
32749;DHT22;19119;52.474;13.710;2023-09-08T13:50:54;34.60;80.70
32749;DHT22;19119;52.474;13.710;2023-09-08T13:53:24;33.00;79.90
32749;DHT22;19119;52.474;13.710;2023-09-08T13:55:50;32.50;81.10
32749;DHT22;19119;52.474;13.710;2023-09-08T13:58:16;33.10;82.20
32749;DHT22;19119;52.474;13.710;2023-09-08T14:00:42;32.30;82.80
32749;DHT22;19119;52.474;13.710;2023-09-08T14:03:08;32.10;83.20
32749;DHT22;19119;52.474;13.710;2023-09-08T14:05:34;31.80;83.00
32749;DHT22;19119;52.474;13.710;2023-09-08T14:08:00;32.00;82.40
32749;DHT22;19119;52.474;13.710;2023-09-08T14:10:25;31.70;82.10
32749;DHT22;19119;52.474;13.710;2023-09-08T14:12:51;31.30;82.90
32749;DHT22;19119;52.474;13.710;2023-09-08T14:15:17;31.20;83.50
32749;DHT22;19119;52.474;13.710;2023-09-08T14:17:43;31.40;82.30
32749;DHT22;19119;52.474;13.710;2023-09-08T14:20:09;31.50;84.10
32749;DHT22;19119;52.474;13.710;2023-09-08T14:22:35;31.30;82.10
32749;DHT22;19119;52.474;13.710;2023-09-08T14:25:00;31.10;83.70
32749;DHT22;19119;52.474;13.710;2023-09-08T14:27:25;31.10;83.90
32749;DHT22;19119;52.474;13.710;2023-09-08T14:29:51;31.20;83.60
32749;DHT22;19119;52.474;13.710;2023-09-08T14:32:20;30.80;83.70
32749;DHT22;19119;52.474;13.710;2023-09-08T14:34:45;31.10;83.90
32749;DHT22;19119;52.474;13.710;2023-09-08T14:37:11;30.60;84.20
32749;DHT22;19119;52.474;13.710;2023-09-08T14:39:38;30.70;83.20
32749;DHT22;19119;52.474;13.710;2023-09-08T14:42:03;30.70;84.10
32749;DHT22;19119;52.474;13.710;2023-09-08T14:44:29;30.60;82.80
32749;DHT22;19119;52.474;13.710;2023-09-08T14:46:54;30.30;83.00
32749;DHT22;19119;52.474;13.710;2023-09-08T14:49:19;30.50;82.50
32749;DHT22;19119;52.474;13.710;2023-09-08T14:51:45;30.50;83.40
32749;DHT22;19119;52.474;13.710;2023-09-08T14:54:11;30.30;83.50
32749;DHT22;19119;52.474;13.710;2023-09-08T14:56:37;30.20;84.40
32749;DHT22;19119;52.474;13.710;2023-09-08T14:59:03;30.00;83.90
32749;DHT22;19119;52.474;13.710;2023-09-08T15:01:29;30.10;85.40
32749;DHT22;19119;52.474;13.710;2023-09-08T15:03:55;30.10;84.40
32749;DHT22;19119;52.474;13.710;2023-09-08T15:06:21;30.00;84.20
32749;DHT22;19119;52.474;13.710;2023-09-08T15:08:46;30.00;84.50
32749;DHT22;19119;52.474;13.710;2023-09-08T15:11:13;29.80;84.00
32749;DHT22;19119;52.474;13.710;2023-09-08T15:13:39;29.80;84.70
32749;DHT22;19119;52.474;13.710;2023-09-08T15:16:04;30.00;84.20
32749;DHT22;19119;52.474;13.710;2023-09-08T15:18:30;29.70;84.50
32749;DHT22;19119;52.474;13.710;2023-09-08T15:20:56;29.80;84.50
32749;DHT22;19119;52.474;13.710;2023-09-08T15:23:21;29.60;86.80